sensor_id;sensor_type;location;lat;lon;timestamp;temperature;humidity
52209;DHT22;38507;53.132;6.394;2022-12-07T00:01:37;2.50;99.90
52209;DHT22;38507;53.132;6.394;2022-12-07T00:04:04;2.50;99.90
52209;DHT22;38507;53.132;6.394;2022-12-07T00:06:38;2.60;99.90
52209;DHT22;38507;53.132;6.394;2022-12-07T00:09:06;2.50;99.90
52209;DHT22;38507;53.132;6.394;2022-12-07T00:11:32;2.50;99.90
52209;DHT22;38507;53.132;6.394;2022-12-07T00:14:01;2.50;99.90
52209;DHT22;38507;53.132;6.394;2022-12-07T00:16:29;2.50;99.90
52209;DHT22;38507;53.132;6.394;2022-12-07T00:18:55;2.50;99.90
52209;DHT22;38507;53.132;6.394;2022-12-07T00:21:24;2.50;99.90
52209;DHT22;38507;53.132;6.394;2022-12-07T00:23:51;2.50;99.90
52209;DHT22;38507;53.132;6.394;2022-12-07T00:26:25;2.50;99.90
52209;DHT22;38507;53.132;6.394;2022-12-07T00:28:54;2.60;99.90
52209;DHT22;38507;53.132;6.394;2022-12-07T00:31:22;2.60;99.90
52209;DHT22;38507;53.132;6.394;2022-12-07T00:33:49;2.70;99.90
52209;DHT22;38507;53.132;6.394;2022-12-07T00:36:19;2.70;99.90
52209;DHT22;38507;53.132;6.394;2022-12-07T00:38:44;2.90;99.90
52209;DHT22;38507;53.132;6.394;2022-12-07T00:41:13;2.90;99.90
52209;DHT22;38507;53.132;6.394;2022-12-07T00:43:39;3.00;99.90
52209;DHT22;38507;53.132;6.394;2022-12-07T00:46:05;3.00;99.90
52209;DHT22;38507;53.132;6.394;2022-12-07T00:48:31;3.00;99.90
52209;DHT22;38507;53.132;6.394;2022-12-07T00:50:57;2.90;99.90
52209;DHT22;38507;53.132;6.394;2022-12-07T00:53:23;2.90;99.90
52209;DHT22;38507;53.132;6.394;2022-12-07T00:55:48;2.90;99.90
52209;DHT22;38507;53.132;6.394;2022-12-07T00:58:14;2.90;99.90
52209;DHT22;38507;53.132;6.394;2022-12-07T01:00:41;3.00;99.90
52209;DHT22;38507;53.132;6.394;2022-12-07T01:03:09;2.90;99.90
52209;DHT22;38507;53.132;6.394;2022-12-07T01:05:35;3.00;99.90
52209;DHT22;38507;53.132;6.394;2022-12-07T01:08:01;3.00;99.90
52209;DHT22;38507;53.132;6.394;2022-12-07T01:10:27;3.00;99.90
52209;DHT22;38507;53.132;6.394;2022-12-07T01:12:55;3.10;99.90
52209;DHT22;38507;53.132;6.394;2022-12-07T01:15:21;3.10;99.90
52209;DHT22;38507;53.132;6.394;2022-12-07T01:17:46;3.10;99.90
52209;DHT22;38507;53.132;6.394;2022-12-07T01:20:12;3.10;99.90
52209;DHT22;38507;53.132;6.394;2022-12-07T01:22:42;3.10;99.90
52209;DHT22;38507;53.132;6.394;2022-12-07T01:25:10;3.10;99.90
52209;DHT22;38507;53.132;6.394;2022-12-07T01:27:37;3.10;99.90
52209;DHT22;38507;53.132;6.394;2022-12-07T01:30:05;3.10;99.90
52209;DHT22;38507;53.132;6.394;2022-12-07T01:32:32;3.10;99.90
52209;DHT22;38507;53.132;6.394;2022-12-07T01:34:58;3.20;99.90
52209;DHT22;38507;53.132;6.394;2022-12-07T01:37:23;3.20;99.90
52209;DHT22;38507;53.132;6.394;2022-12-07T01:39:50;3.20;99.90
52209;DHT22;38507;53.132;6.394;2022-12-07T01:42:18;3.30;99.90
52209;DHT22;38507;53.132;6.394;2022-12-07T01:47:47;3.30;99.90
52209;DHT22;38507;53.132;6.394;2022-12-07T01:50:14;3.30;99.90
52209;DHT22;38507;53.132;6.394;2022-12-07T01:52:41;3.30;99.90
52209;DHT22;38507;53.132;6.394;2022-12-07T01:55:12;3.20;99.90
52209;DHT22;38507;53.132;6.394;2022-12-07T01:57:45;3.20;99.90
52209;DHT22;38507;53.132;6.394;2022-12-07T02:00:13;3.20;99.90
52209;DHT22;38507;53.132;6.394;2022-12-07T02:03:05;3.20;99.90
52209;DHT22;38507;53.132;6.394;2022-12-07T02:05:32;3.20;99.90
52209;DHT22;38507;53.132;6.394;2022-12-07T02:07:59;3.20;99.90
52209;DHT22;38507;53.132;6.394;2022-12-07T02:10:27;3.20;99.90
52209;DHT22;38507;53.132;6.394;2022-12-07T02:13:01;3.20;99.90
52209;DHT22;38507;53.132;6.394;2022-12-07T02:29:33;3.10;99.90
52209;DHT22;38507;53.132;6.394;2022-12-07T02:32:26;3.20;99.90
52209;DHT22;38507;53.132;6.394;2022-12-07T02:38:16;3.20;99.90
52209;DHT22;38507;53.132;6.394;2022-12-07T02:40:55;3.20;99.90
52209;DHT22;38507;53.132;6.394;2022-12-07T02:43:31;3.20;99.90
52209;DHT22;38507;53.132;6.394;2022-12-07T02:46:09;3.20;99.90
52209;DHT22;38507;53.132;6.394;2022-12-07T02:48:37;3.20;99.90
52209;DHT22;38507;53.132;6.394;2022-12-07T02:51:04;3.20;99.90
52209;DHT22;38507;53.132;6.394;2022-12-07T03:03:49;3.10;99.90
52209;DHT22;38507;53.132;6.394;2022-12-07T03:06:25;3.10;99.90
52209;DHT22;38507;53.132;6.394;2022-12-07T03:09:11;3.00;99.90
52209;DHT22;38507;53.132;6.394;2022-12-07T03:11:42;3.00;99.90
52209;DHT22;38507;53.132;6.394;2022-12-07T03:14:21;3.10;99.90
52209;DHT22;38507;53.132;6.394;2022-12-07T03:16:57;3.00;99.90
52209;DHT22;38507;53.132;6.394;2022-12-07T03:19:25;3.00;99.90
52209;DHT22;38507;53.132;6.394;2022-12-07T03:22:07;3.00;99.90
52209;DHT22;38507;53.132;6.394;2022-12-07T03:24:39;3.00;99.90
52209;DHT22;38507;53.132;6.394;2022-12-07T03:27:13;3.00;99.90
52209;DHT22;38507;53.132;6.394;2022-12-07T03:29:45;3.00;99.90
52209;DHT22;38507;53.132;6.394;2022-12-07T03:32:21;3.00;99.90
52209;DHT22;38507;53.132;6.394;2022-12-07T03:35:03;3.00;99.90
52209;DHT22;38507;53.132;6.394;2022-12-07T03:37:34;3.10;99.90
52209;DHT22;38507;53.132;6.394;2022-12-07T03:40:33;3.10;99.90
52209;DHT22;38507;53.132;6.394;2022-12-07T03:43:01;3.10;99.90
52209;DHT22;38507;53.132;6.394;2022-12-07T03:48:32;3.00;99.90
52209;DHT22;38507;53.132;6.394;2022-12-07T03:56:31;2.90;99.90
52209;DHT22;38507;53.132;6.394;2022-12-07T03:58:58;2.90;99.90
52209;DHT22;38507;53.132;6.394;2022-12-07T04:01:24;2.90;99.90
52209;DHT22;38507;53.132;6.394;2022-12-07T04:03:50;2.80;99.90
52209;DHT22;38507;53.132;6.394;2022-12-07T04:06:16;2.80;99.90
52209;DHT22;38507;53.132;6.394;2022-12-07T04:08:41;2.80;99.90
52209;DHT22;38507;53.132;6.394;2022-12-07T04:11:07;2.80;99.90
52209;DHT22;38507;53.132;6.394;2022-12-07T04:13:32;2.80;99.90
52209;DHT22;38507;53.132;6.394;2022-12-07T04:16:18;2.80;99.90
52209;DHT22;38507;53.132;6.394;2022-12-07T04:18:44;2.90;99.90
52209;DHT22;38507;53.132;6.394;2022-12-07T04:21:09;2.80;99.90
52209;DHT22;38507;53.132;6.394;2022-12-07T04:23:35;2.80;99.90
52209;DHT22;38507;53.132;6.394;2022-12-07T04:26:00;2.80;99.90
52209;DHT22;38507;53.132;6.394;2022-12-07T04:28:26;2.80;99.90
52209;DHT22;38507;53.132;6.394;2022-12-07T04:30:51;2.80;99.90
52209;DHT22;38507;53.132;6.394;2022-12-07T04:33:17;2.80;99.90
52209;DHT22;38507;53.132;6.394;2022-12-07T04:35:43;2.80;99.90
52209;DHT22;38507;53.132;6.394;2022-12-07T04:38:09;2.70;99.90
52209;DHT22;38507;53.132;6.394;2022-12-07T04:40:34;2.80;99.90
52209;DHT22;38507;53.132;6.394;2022-12-07T04:43:00;2.70;99.90
52209;DHT22;38507;53.132;6.394;2022-12-07T04:45:25;3.30;99.90
52209;DHT22;38507;53.132;6.394;2022-12-07T04:47:51;2.70;99.90
52209;DHT22;38507;53.132;6.394;2022-12-07T04:50:17;2.70;99.90
52209;DHT22;38507;53.132;6.394;2022-12-07T04:52:42;2.60;99.90
52209;DHT22;38507;53.132;6.394;2022-12-07T04:55:08;2.60;99.90
52209;DHT22;38507;53.132;6.394;2022-12-07T04:57:33;2.60;99.90
52209;DHT22;38507;53.132;6.394;2022-12-07T04:59:59;2.60;99.90
52209;DHT22;38507;53.132;6.394;2022-12-07T05:02:25;2.50;99.90
52209;DHT22;38507;53.132;6.394;2022-12-07T05:04:51;2.50;99.90
52209;DHT22;38507;53.132;6.394;2022-12-07T05:07:17;2.40;99.90
52209;DHT22;38507;53.132;6.394;2022-12-07T05:09:42;2.40;99.90
52209;DHT22;38507;53.132;6.394;2022-12-07T05:12:08;2.30;99.90
52209;DHT22;38507;53.132;6.394;2022-12-07T05:14:33;2.30;99.90
52209;DHT22;38507;53.132;6.394;2022-12-07T05:16:59;2.30;99.90
52209;DHT22;38507;53.132;6.394;2022-12-07T05:19:25;2.30;99.90
52209;DHT22;38507;53.132;6.394;2022-12-07T05:21:51;2.30;99.90
52209;DHT22;38507;53.132;6.394;2022-12-07T05:24:17;2.20;99.90
52209;DHT22;38507;53.132;6.394;2022-12-07T05:26:44;2.10;99.90
52209;DHT22;38507;53.132;6.394;2022-12-07T05:29:12;2.10;99.90
52209;DHT22;38507;53.132;6.394;2022-12-07T05:31:38;2.30;99.90
52209;DHT22;38507;53.132;6.394;2022-12-07T05:34:04;1.90;99.90
52209;DHT22;38507;53.132;6.394;2022-12-07T05:36:29;1.90;99.90
52209;DHT22;38507;53.132;6.394;2022-12-07T05:38:57;1.90;99.90
52209;DHT22;38507;53.132;6.394;2022-12-07T05:41:23;1.90;99.90
52209;DHT22;38507;53.132;6.394;2022-12-07T05:44:07;1.90;99.90
52209;DHT22;38507;53.132;6.394;2022-12-07T05:46:33;1.90;99.90
52209;DHT22;38507;53.132;6.394;2022-12-07T05:48:58;1.90;99.90
52209;DHT22;38507;53.132;6.394;2022-12-07T05:51:24;1.90;99.90
52209;DHT22;38507;53.132;6.394;2022-12-07T05:53:50;1.90;99.90
52209;DHT22;38507;53.132;6.394;2022-12-07T05:56:15;1.90;99.90
52209;DHT22;38507;53.132;6.394;2022-12-07T05:58:41;2.00;99.90
52209;DHT22;38507;53.132;6.394;2022-12-07T06:01:25;2.10;99.90
52209;DHT22;38507;53.132;6.394;2022-12-07T06:03:51;2.20;99.90
52209;DHT22;38507;53.132;6.394;2022-12-07T06:06:17;2.20;99.90
52209;DHT22;38507;53.132;6.394;2022-12-07T06:08:42;2.20;99.90
52209;DHT22;38507;53.132;6.394;2022-12-07T06:11:08;2.20;99.90
52209;DHT22;38507;53.132;6.394;2022-12-07T06:13:52;2.20;99.90
52209;DHT22;38507;53.132;6.394;2022-12-07T06:16:18;2.20;99.90
52209;DHT22;38507;53.132;6.394;2022-12-07T06:18:44;2.20;99.90
52209;DHT22;38507;53.132;6.394;2022-12-07T06:21:09;2.20;99.90
52209;DHT22;38507;53.132;6.394;2022-12-07T06:23:35;2.30;99.90
52209;DHT22;38507;53.132;6.394;2022-12-07T06:26:00;2.30;99.90
52209;DHT22;38507;53.132;6.394;2022-12-07T06:28:26;2.30;99.90
52209;DHT22;38507;53.132;6.394;2022-12-07T06:30:58;2.40;99.90
52209;DHT22;38507;53.132;6.394;2022-12-07T06:33:24;2.40;99.90
52209;DHT22;38507;53.132;6.394;2022-12-07T06:35:50;2.50;99.90
52209;DHT22;38507;53.132;6.394;2022-12-07T06:38:16;2.50;99.90
52209;DHT22;38507;53.132;6.394;2022-12-07T06:40:42;2.50;99.90
52209;DHT22;38507;53.132;6.394;2022-12-07T06:43:07;2.50;99.90
52209;DHT22;38507;53.132;6.394;2022-12-07T06:45:33;2.50;99.90
52209;DHT22;38507;53.132;6.394;2022-12-07T06:47:59;2.50;99.90
52209;DHT22;38507;53.132;6.394;2022-12-07T06:50:24;2.50;99.90
52209;DHT22;38507;53.132;6.394;2022-12-07T06:52:50;2.50;99.90
52209;DHT22;38507;53.132;6.394;2022-12-07T06:55:16;2.40;99.90
52209;DHT22;38507;53.132;6.394;2022-12-07T06:57:42;2.40;99.90
52209;DHT22;38507;53.132;6.394;2022-12-07T07:00:08;2.30;99.90
52209;DHT22;38507;53.132;6.394;2022-12-07T07:02:34;2.30;99.90
52209;DHT22;38507;53.132;6.394;2022-12-07T07:04:59;2.20;99.90
52209;DHT22;38507;53.132;6.394;2022-12-07T07:07:25;2.20;99.90
52209;DHT22;38507;53.132;6.394;2022-12-07T07:09:51;2.20;99.90
52209;DHT22;38507;53.132;6.394;2022-12-07T07:12:16;2.20;99.90
52209;DHT22;38507;53.132;6.394;2022-12-07T07:14:42;2.10;99.90
52209;DHT22;38507;53.132;6.394;2022-12-07T07:17:08;2.20;99.90
52209;DHT22;38507;53.132;6.394;2022-12-07T07:19:34;2.20;99.90
52209;DHT22;38507;53.132;6.394;2022-12-07T07:22:00;2.10;99.90
52209;DHT22;38507;53.132;6.394;2022-12-07T07:24:25;2.10;99.90
52209;DHT22;38507;53.132;6.394;2022-12-07T07:26:51;2.10;99.90
52209;DHT22;38507;53.132;6.394;2022-12-07T07:29:17;2.10;99.90
52209;DHT22;38507;53.132;6.394;2022-12-07T07:31:42;2.10;99.90
52209;DHT22;38507;53.132;6.394;2022-12-07T07:34:08;2.10;99.90
52209;DHT22;38507;53.132;6.394;2022-12-07T07:36:34;2.10;99.90
52209;DHT22;38507;53.132;6.394;2022-12-07T07:38:59;2.00;99.90
52209;DHT22;38507;53.132;6.394;2022-12-07T07:41:25;2.00;99.90
52209;DHT22;38507;53.132;6.394;2022-12-07T07:43:50;1.90;99.90
52209;DHT22;38507;53.132;6.394;2022-12-07T07:46:16;1.90;99.90
52209;DHT22;38507;53.132;6.394;2022-12-07T07:48:42;1.90;99.90
52209;DHT22;38507;53.132;6.394;2022-12-07T07:51:08;1.90;99.90
52209;DHT22;38507;53.132;6.394;2022-12-07T07:53:34;1.80;99.90
52209;DHT22;38507;53.132;6.394;2022-12-07T07:55:59;1.90;99.90
52209;DHT22;38507;53.132;6.394;2022-12-07T07:58:25;1.90;99.90
52209;DHT22;38507;53.132;6.394;2022-12-07T08:00:51;1.80;99.90
52209;DHT22;38507;53.132;6.394;2022-12-07T08:03:17;1.80;99.90
52209;DHT22;38507;53.132;6.394;2022-12-07T08:05:43;1.80;99.90
52209;DHT22;38507;53.132;6.394;2022-12-07T08:08:08;1.80;99.90
52209;DHT22;38507;53.132;6.394;2022-12-07T08:10:34;1.80;99.90
52209;DHT22;38507;53.132;6.394;2022-12-07T08:13:00;2.00;99.90
52209;DHT22;38507;53.132;6.394;2022-12-07T08:15:46;2.00;99.90
52209;DHT22;38507;53.132;6.394;2022-12-07T08:18:13;2.00;99.90
52209;DHT22;38507;53.132;6.394;2022-12-07T08:20:39;2.00;99.90
52209;DHT22;38507;53.132;6.394;2022-12-07T08:23:06;2.00;99.90
52209;DHT22;38507;53.132;6.394;2022-12-07T08:25:32;2.00;99.90
52209;DHT22;38507;53.132;6.394;2022-12-07T08:27:58;2.00;99.90
52209;DHT22;38507;53.132;6.394;2022-12-07T08:30:24;2.00;99.90
52209;DHT22;38507;53.132;6.394;2022-12-07T08:32:50;2.00;99.90
52209;DHT22;38507;53.132;6.394;2022-12-07T08:35:16;2.00;99.90
52209;DHT22;38507;53.132;6.394;2022-12-07T08:37:41;2.00;99.90
52209;DHT22;38507;53.132;6.394;2022-12-07T08:40:09;2.10;99.90
52209;DHT22;38507;53.132;6.394;2022-12-07T08:42:35;2.10;99.90
52209;DHT22;38507;53.132;6.394;2022-12-07T08:45:11;2.10;99.90
52209;DHT22;38507;53.132;6.394;2022-12-07T08:47:40;2.20;99.90
52209;DHT22;38507;53.132;6.394;2022-12-07T08:50:07;2.10;99.90
52209;DHT22;38507;53.132;6.394;2022-12-07T08:52:34;2.10;99.90
52209;DHT22;38507;53.132;6.394;2022-12-07T08:55:02;2.20;99.90
52209;DHT22;38507;53.132;6.394;2022-12-07T08:57:29;2.20;99.90
52209;DHT22;38507;53.132;6.394;2022-12-07T08:59:55;2.30;99.90
52209;DHT22;38507;53.132;6.394;2022-12-07T09:02:21;2.30;99.90
52209;DHT22;38507;53.132;6.394;2022-12-07T09:04:46;2.40;99.90
52209;DHT22;38507;53.132;6.394;2022-12-07T09:07:12;2.40;99.90
52209;DHT22;38507;53.132;6.394;2022-12-07T09:09:38;2.50;99.90
52209;DHT22;38507;53.132;6.394;2022-12-07T09:12:03;2.70;99.90
52209;DHT22;38507;53.132;6.394;2022-12-07T09:14:29;2.90;99.90
52209;DHT22;38507;53.132;6.394;2022-12-07T09:16:55;2.90;99.90
52209;DHT22;38507;53.132;6.394;2022-12-07T09:19:20;3.00;99.90
52209;DHT22;38507;53.132;6.394;2022-12-07T09:21:46;3.00;99.90
52209;DHT22;38507;53.132;6.394;2022-12-07T09:24:12;3.10;99.90
52209;DHT22;38507;53.132;6.394;2022-12-07T09:26:38;3.10;99.90
52209;DHT22;38507;53.132;6.394;2022-12-07T09:29:06;3.10;99.90
52209;DHT22;38507;53.132;6.394;2022-12-07T09:31:31;3.20;99.90
52209;DHT22;38507;53.132;6.394;2022-12-07T09:34:00;3.20;99.90
52209;DHT22;38507;53.132;6.394;2022-12-07T09:36:27;3.30;99.90
52209;DHT22;38507;53.132;6.394;2022-12-07T09:38:53;3.30;99.90
52209;DHT22;38507;53.132;6.394;2022-12-07T09:41:19;3.30;99.90
52209;DHT22;38507;53.132;6.394;2022-12-07T09:43:46;3.30;99.90
52209;DHT22;38507;53.132;6.394;2022-12-07T09:46:15;3.40;99.90
52209;DHT22;38507;53.132;6.394;2022-12-07T09:48:43;3.40;99.90
52209;DHT22;38507;53.132;6.394;2022-12-07T09:53:41;3.40;99.90
52209;DHT22;38507;53.132;6.394;2022-12-07T09:56:12;3.40;99.90
52209;DHT22;38507;53.132;6.394;2022-12-07T09:58:38;3.50;99.90
52209;DHT22;38507;53.132;6.394;2022-12-07T10:03:33;3.50;99.90
52209;DHT22;38507;53.132;6.394;2022-12-07T10:06:00;3.70;99.90
52209;DHT22;38507;53.132;6.394;2022-12-07T10:08:26;3.90;99.90
52209;DHT22;38507;53.132;6.394;2022-12-07T10:10:56;4.10;99.90
52209;DHT22;38507;53.132;6.394;2022-12-07T10:13:34;4.30;99.90
52209;DHT22;38507;53.132;6.394;2022-12-07T10:16:00;4.30;99.90
52209;DHT22;38507;53.132;6.394;2022-12-07T10:21:13;4.50;99.90
52209;DHT22;38507;53.132;6.394;2022-12-07T10:26:35;4.70;99.90
52209;DHT22;38507;53.132;6.394;2022-12-07T10:34:41;4.90;99.90
52209;DHT22;38507;53.132;6.394;2022-12-07T10:39:45;5.00;99.90
52209;DHT22;38507;53.132;6.394;2022-12-07T10:42:23;5.20;99.90
52209;DHT22;38507;53.132;6.394;2022-12-07T10:45:06;5.30;99.90
52209;DHT22;38507;53.132;6.394;2022-12-07T10:47:46;5.50;99.90
52209;DHT22;38507;53.132;6.394;2022-12-07T11:04:02;5.80;99.90
52209;DHT22;38507;53.132;6.394;2022-12-07T11:06:59;5.80;99.90
52209;DHT22;38507;53.132;6.394;2022-12-07T11:15:13;5.70;99.90
52209;DHT22;38507;53.132;6.394;2022-12-07T11:20:39;5.80;99.90
52209;DHT22;38507;53.132;6.394;2022-12-07T11:26:16;5.80;99.90
52209;DHT22;38507;53.132;6.394;2022-12-07T11:31:37;5.90;99.90
52209;DHT22;38507;53.132;6.394;2022-12-07T11:34:24;5.90;99.90
52209;DHT22;38507;53.132;6.394;2022-12-07T11:36:54;5.90;99.90
52209;DHT22;38507;53.132;6.394;2022-12-07T11:39:28;6.00;99.90
52209;DHT22;38507;53.132;6.394;2022-12-07T11:42:05;6.20;99.90
52209;DHT22;38507;53.132;6.394;2022-12-07T11:45:02;6.20;99.90
52209;DHT22;38507;53.132;6.394;2022-12-07T11:52:58;6.50;99.90
52209;DHT22;38507;53.132;6.394;2022-12-07T11:55:45;6.40;99.90
52209;DHT22;38507;53.132;6.394;2022-12-07T12:01:11;6.40;99.90
52209;DHT22;38507;53.132;6.394;2022-12-07T12:03:42;6.40;99.90
52209;DHT22;38507;53.132;6.394;2022-12-07T12:06:09;6.50;99.90
52209;DHT22;38507;53.132;6.394;2022-12-07T12:09:11;6.50;99.90
52209;DHT22;38507;53.132;6.394;2022-12-07T12:22:37;6.60;99.90
52209;DHT22;38507;53.132;6.394;2022-12-07T12:25:07;6.50;99.90
52209;DHT22;38507;53.132;6.394;2022-12-07T12:27:38;6.50;99.90
52209;DHT22;38507;53.132;6.394;2022-12-07T12:30:07;6.50;99.90
52209;DHT22;38507;53.132;6.394;2022-12-07T12:32:49;6.30;99.90
52209;DHT22;38507;53.132;6.394;2022-12-07T12:37:53;6.00;99.90
52209;DHT22;38507;53.132;6.394;2022-12-07T12:42:57;5.30;99.90
52209;DHT22;38507;53.132;6.394;2022-12-07T12:45:30;5.10;99.90
52209;DHT22;38507;53.132;6.394;2022-12-07T12:48:00;4.80;99.90
52209;DHT22;38507;53.132;6.394;2022-12-07T12:50:34;4.70;99.90
52209;DHT22;38507;53.132;6.394;2022-12-07T12:53:12;4.60;99.90
52209;DHT22;38507;53.132;6.394;2022-12-07T13:03:56;4.40;99.90
52209;DHT22;38507;53.132;6.394;2022-12-07T13:08:54;4.40;99.90
52209;DHT22;38507;53.132;6.394;2022-12-07T13:11:34;4.40;99.90
52209;DHT22;38507;53.132;6.394;2022-12-07T13:20:03;4.50;99.90
52209;DHT22;38507;53.132;6.394;2022-12-07T13:27:52;4.40;99.90
52209;DHT22;38507;53.132;6.394;2022-12-07T13:30:22;4.30;99.90
52209;DHT22;38507;53.132;6.394;2022-12-07T13:32:58;4.30;99.90
52209;DHT22;38507;53.132;6.394;2022-12-07T13:35:32;4.30;99.90
52209;DHT22;38507;53.132;6.394;2022-12-07T13:38:01;4.20;99.90
52209;DHT22;38507;53.132;6.394;2022-12-07T13:40:27;4.20;99.90
52209;DHT22;38507;53.132;6.394;2022-12-07T13:43:02;4.20;99.90
52209;DHT22;38507;53.132;6.394;2022-12-07T13:45:32;4.20;99.90
52209;DHT22;38507;53.132;6.394;2022-12-07T13:48:31;4.10;99.90
52209;DHT22;38507;53.132;6.394;2022-12-07T13:50:59;4.20;99.90
52209;DHT22;38507;53.132;6.394;2022-12-07T13:53:26;4.20;99.90
52209;DHT22;38507;53.132;6.394;2022-12-07T13:55:56;4.20;99.90
52209;DHT22;38507;53.132;6.394;2022-12-07T13:58:22;4.20;99.90
52209;DHT22;38507;53.132;6.394;2022-12-07T14:00:49;4.20;99.90
52209;DHT22;38507;53.132;6.394;2022-12-07T14:05:42;4.20;99.90
52209;DHT22;38507;53.132;6.394;2022-12-07T14:10:39;4.10;99.90
52209;DHT22;38507;53.132;6.394;2022-12-07T14:13:31;4.00;99.90
52209;DHT22;38507;53.132;6.394;2022-12-07T14:16:00;4.00;99.90
52209;DHT22;38507;53.132;6.394;2022-12-07T14:18:37;4.00;99.90
52209;DHT22;38507;53.132;6.394;2022-12-07T14:21:14;4.00;99.90
52209;DHT22;38507;53.132;6.394;2022-12-07T14:23:41;3.90;99.90
52209;DHT22;38507;53.132;6.394;2022-12-07T14:26:15;4.00;99.90
52209;DHT22;38507;53.132;6.394;2022-12-07T14:28:42;4.00;99.90
52209;DHT22;38507;53.132;6.394;2022-12-07T14:31:13;4.00;99.90
52209;DHT22;38507;53.132;6.394;2022-12-07T14:33:40;4.00;99.90
52209;DHT22;38507;53.132;6.394;2022-12-07T14:36:09;3.90;99.90
52209;DHT22;38507;53.132;6.394;2022-12-07T14:38:34;4.00;99.90
52209;DHT22;38507;53.132;6.394;2022-12-07T14:41:00;4.00;99.90
52209;DHT22;38507;53.132;6.394;2022-12-07T14:43:44;3.90;99.90
52209;DHT22;38507;53.132;6.394;2022-12-07T14:46:10;3.90;99.90
52209;DHT22;38507;53.132;6.394;2022-12-07T14:48:36;3.90;99.90
52209;DHT22;38507;53.132;6.394;2022-12-07T14:51:01;3.90;99.90
52209;DHT22;38507;53.132;6.394;2022-12-07T14:53:33;3.90;99.90
52209;DHT22;38507;53.132;6.394;2022-12-07T14:56:00;3.80;99.90
52209;DHT22;38507;53.132;6.394;2022-12-07T14:58:26;3.70;99.90
52209;DHT22;38507;53.132;6.394;2022-12-07T15:00:51;3.70;99.90
52209;DHT22;38507;53.132;6.394;2022-12-07T15:03:17;3.70;99.90
52209;DHT22;38507;53.132;6.394;2022-12-07T15:05:42;3.60;99.90
52209;DHT22;38507;53.132;6.394;2022-12-07T15:08:12;3.60;99.90
52209;DHT22;38507;53.132;6.394;2022-12-07T15:10:38;3.60;99.90
52209;DHT22;38507;53.132;6.394;2022-12-07T15:13:06;3.50;99.90
52209;DHT22;38507;53.132;6.394;2022-12-07T15:15:52;3.50;99.90
52209;DHT22;38507;53.132;6.394;2022-12-07T15:18:18;3.40;99.90
52209;DHT22;38507;53.132;6.394;2022-12-07T15:20:44;3.40;99.90
52209;DHT22;38507;53.132;6.394;2022-12-07T15:23:10;3.30;99.90
52209;DHT22;38507;53.132;6.394;2022-12-07T15:25:36;3.20;99.90
52209;DHT22;38507;53.132;6.394;2022-12-07T15:28:02;3.30;99.90
52209;DHT22;38507;53.132;6.394;2022-12-07T15:30:28;3.20;99.90
52209;DHT22;38507;53.132;6.394;2022-12-07T15:32:53;3.20;99.90
52209;DHT22;38507;53.132;6.394;2022-12-07T15:35:20;3.20;99.90
52209;DHT22;38507;53.132;6.394;2022-12-07T15:37:46;3.20;99.90
52209;DHT22;38507;53.132;6.394;2022-12-07T15:40:13;3.10;99.90
52209;DHT22;38507;53.132;6.394;2022-12-07T15:42:39;3.10;99.90
52209;DHT22;38507;53.132;6.394;2022-12-07T15:45:06;3.10;99.90
52209;DHT22;38507;53.132;6.394;2022-12-07T15:47:35;3.00;99.90
52209;DHT22;38507;53.132;6.394;2022-12-07T15:50:03;3.10;99.90
52209;DHT22;38507;53.132;6.394;2022-12-07T15:52:29;3.10;99.90
52209;DHT22;38507;53.132;6.394;2022-12-07T15:54:55;3.00;99.90
52209;DHT22;38507;53.132;6.394;2022-12-07T15:57:21;3.00;99.90
52209;DHT22;38507;53.132;6.394;2022-12-07T15:59:47;3.40;99.90
52209;DHT22;38507;53.132;6.394;2022-12-07T16:02:12;3.10;99.90
52209;DHT22;38507;53.132;6.394;2022-12-07T16:04:38;3.00;99.90
52209;DHT22;38507;53.132;6.394;2022-12-07T16:07:04;3.00;99.90
52209;DHT22;38507;53.132;6.394;2022-12-07T16:09:29;3.10;99.90
52209;DHT22;38507;53.132;6.394;2022-12-07T16:11:55;3.10;99.90
52209;DHT22;38507;53.132;6.394;2022-12-07T16:14:21;3.10;99.90
52209;DHT22;38507;53.132;6.394;2022-12-07T16:16:47;3.20;99.90
52209;DHT22;38507;53.132;6.394;2022-12-07T16:19:13;3.10;99.90
52209;DHT22;38507;53.132;6.394;2022-12-07T16:21:39;3.10;99.90
52209;DHT22;38507;53.132;6.394;2022-12-07T16:24:06;3.10;99.90
52209;DHT22;38507;53.132;6.394;2022-12-07T16:26:31;3.10;99.90
52209;DHT22;38507;53.132;6.394;2022-12-07T16:28:57;3.10;99.90
52209;DHT22;38507;53.132;6.394;2022-12-07T16:31:26;3.20;99.90
52209;DHT22;38507;53.132;6.394;2022-12-07T16:33:54;3.20;99.90
52209;DHT22;38507;53.132;6.394;2022-12-07T16:36:20;3.20;99.90
52209;DHT22;38507;53.132;6.394;2022-12-07T16:38:48;3.20;99.90
52209;DHT22;38507;53.132;6.394;2022-12-07T16:41:14;3.20;99.90
52209;DHT22;38507;53.132;6.394;2022-12-07T16:43:40;3.20;99.90
52209;DHT22;38507;53.132;6.394;2022-12-07T16:46:06;3.20;99.90
52209;DHT22;38507;53.132;6.394;2022-12-07T16:48:34;3.20;99.90
52209;DHT22;38507;53.132;6.394;2022-12-07T16:51:03;3.20;99.90
52209;DHT22;38507;53.132;6.394;2022-12-07T16:53:29;3.20;99.90
52209;DHT22;38507;53.132;6.394;2022-12-07T16:55:54;3.20;99.90
52209;DHT22;38507;53.132;6.394;2022-12-07T16:58:20;3.20;99.90
52209;DHT22;38507;53.132;6.394;2022-12-07T17:00:46;3.20;99.90
52209;DHT22;38507;53.132;6.394;2022-12-07T17:03:11;3.20;99.90
52209;DHT22;38507;53.132;6.394;2022-12-07T17:05:41;3.20;99.90
52209;DHT22;38507;53.132;6.394;2022-12-07T17:08:08;3.10;99.90
52209;DHT22;38507;53.132;6.394;2022-12-07T17:10:36;3.10;99.90
52209;DHT22;38507;53.132;6.394;2022-12-07T17:13:06;3.20;99.90
52209;DHT22;38507;53.132;6.394;2022-12-07T17:16:00;3.10;99.90
52209;DHT22;38507;53.132;6.394;2022-12-07T17:18:27;3.10;99.90
52209;DHT22;38507;53.132;6.394;2022-12-07T17:20:53;3.10;99.90
52209;DHT22;38507;53.132;6.394;2022-12-07T17:23:19;3.10;99.90
52209;DHT22;38507;53.132;6.394;2022-12-07T17:25:45;3.10;99.90
52209;DHT22;38507;53.132;6.394;2022-12-07T17:28:11;3.10;99.90
52209;DHT22;38507;53.132;6.394;2022-12-07T17:30:38;3.10;99.90
52209;DHT22;38507;53.132;6.394;2022-12-07T17:33:03;3.10;99.90
52209;DHT22;38507;53.132;6.394;2022-12-07T17:35:29;3.10;99.90
52209;DHT22;38507;53.132;6.394;2022-12-07T17:37:55;3.10;99.90
52209;DHT22;38507;53.132;6.394;2022-12-07T17:40:21;3.10;99.90
52209;DHT22;38507;53.132;6.394;2022-12-07T17:42:47;3.10;99.90
52209;DHT22;38507;53.132;6.394;2022-12-07T17:45:16;3.00;99.90
52209;DHT22;38507;53.132;6.394;2022-12-07T17:47:42;3.00;99.90
52209;DHT22;38507;53.132;6.394;2022-12-07T17:50:08;3.10;99.90
52209;DHT22;38507;53.132;6.394;2022-12-07T17:52:38;3.00;99.90
52209;DHT22;38507;53.132;6.394;2022-12-07T17:55:42;3.00;99.90
52209;DHT22;38507;53.132;6.394;2022-12-07T17:58:07;3.00;99.90
52209;DHT22;38507;53.132;6.394;2022-12-07T18:00:33;3.00;99.90
52209;DHT22;38507;53.132;6.394;2022-12-07T18:03:04;3.00;99.90
52209;DHT22;38507;53.132;6.394;2022-12-07T18:05:32;3.00;99.90
52209;DHT22;38507;53.132;6.394;2022-12-07T18:07:57;2.90;99.90
52209;DHT22;38507;53.132;6.394;2022-12-07T18:10:23;2.90;99.90
52209;DHT22;38507;53.132;6.394;2022-12-07T18:12:49;2.90;99.90